Albers, Illinois
Current Conditions -  °F | °C
As of 1:58 AM on Sunday 21 Dec 2014 (Local Time) from KBLV Reporting Station
Overcast Overcast  
Wind Chill: 33°   Ceiling: 2500
Heat Index: 38°   Visibility: 10mi
Dew Point: 34°   Wind: 7mph
Humidity: 84%   Direction: 150°SSE
Pressure: 30.25"   Gusts: NA
Location:  38.54°N, 89.61°W
Report Text: KBLV 210758Z AUTO 15006KT 10SM OVC025 04/01 A3025 RMK AO2 SLP250 T00350011 $
Loading
Personal Weather Stations






























Interactive Weather Map New forecast layout! Learn more

10-Day Weather Forecast

Advertisements
Track Severe Weather on mobile